createdAt,value
2018-10-12T00:02:16.842Z,10.10
2018-10-12T00:05:20.555Z,10.10
2018-10-12T00:08:24.938Z,10.00
2018-10-12T00:11:28.367Z,9.90
2018-10-12T00:14:32.346Z,9.80
2018-10-12T00:17:36.399Z,9.80
2018-10-12T00:20:39.882Z,9.80
2018-10-12T00:23:43.294Z,9.80
2018-10-12T00:26:46.794Z,9.80
2018-10-12T00:29:50.342Z,9.80
2018-10-12T00:32:55.155Z,9.80
2018-10-12T00:35:58.749Z,9.80
2018-10-12T00:39:02.955Z,9.80
2018-10-12T00:42:08.419Z,9.90
2018-10-12T00:45:11.283Z,9.90
2018-10-12T00:48:15.946Z,9.80
2018-10-12T00:51:18.822Z,9.80
2018-10-12T00:54:21.699Z,9.70
2018-10-12T00:57:26.835Z,9.70
2018-10-12T01:00:31.978Z,9.60
2018-10-12T01:03:36.166Z,9.60
2018-10-12T01:06:39.579Z,9.60
2018-10-12T01:09:42.502Z,9.60
2018-10-12T01:12:47.186Z,9.50
2018-10-12T01:15:50.620Z,9.60
2018-10-12T01:18:54.334Z,9.50
2018-10-12T01:21:57.286Z,9.50
2018-10-12T01:25:03.114Z,9.50
2018-10-12T01:28:06.602Z,9.40
2018-10-12T01:31:10.307Z,9.40
2018-10-12T01:34:13.990Z,9.40
2018-10-12T01:37:18.655Z,9.40
2018-10-12T01:40:22.590Z,9.40
2018-10-12T01:43:26.375Z,9.40
2018-10-12T01:46:29.815Z,9.50
2018-10-12T01:49:34.851Z,9.50
2018-10-12T01:52:38.270Z,9.40
2018-10-12T01:55:43.334Z,9.60
2018-10-12T01:58:46.257Z,9.50
2018-10-12T02:01:49.246Z,9.50
2018-10-12T02:04:54.511Z,9.40
2018-10-12T02:07:58.874Z,9.40
2018-10-12T02:11:03.687Z,9.30
2018-10-12T02:14:08.011Z,9.40
2018-10-12T02:17:11.563Z,9.30
2018-10-12T02:20:16.679Z,9.20
2018-10-12T02:23:20.158Z,9.00
2018-10-12T02:26:24.056Z,8.90
2018-10-12T02:29:27.015Z,8.80
2018-10-12T02:32:33.018Z,8.70
2018-10-12T02:35:36.569Z,8.60
2018-10-12T02:38:41.574Z,8.60
2018-10-12T02:41:45.518Z,8.60
2018-10-12T02:44:49.907Z,8.50
2018-10-12T02:47:54.166Z,8.50
2018-10-12T02:50:57.235Z,8.40
2018-10-12T02:54:01.519Z,8.30
2018-10-12T02:57:05.154Z,8.30
2018-10-12T03:00:08.618Z,8.30
2018-10-12T03:03:12.572Z,8.30
2018-10-12T03:06:17.815Z,8.30
2018-10-12T03:09:22.339Z,8.30
2018-10-12T03:12:25.258Z,8.30
2018-10-12T03:15:30.254Z,8.20
2018-10-12T03:18:33.188Z,8.20
2018-10-12T03:21:36.766Z,8.20
2018-10-12T03:24:40.355Z,8.10
2018-10-12T03:28:21.858Z,8.10
2018-10-12T03:31:25.706Z,8.20
2018-10-12T03:34:29.852Z,8.40
2018-10-12T03:37:33.431Z,8.60
2018-10-12T03:40:38.183Z,8.70
2018-10-12T03:43:42.394Z,8.60
2018-10-12T03:46:47.790Z,8.50
2018-10-12T03:49:51.742Z,8.50
2018-10-12T03:52:55.323Z,8.50
2018-10-12T03:55:59.042Z,8.40
2018-10-12T03:59:04.727Z,8.30
2018-10-12T04:02:08.929Z,8.30
2018-10-12T04:05:13.779Z,8.20
2018-10-12T04:08:18.146Z,8.10
2018-10-12T04:11:23.107Z,8.10
2018-10-12T04:14:26.118Z,8.00
2018-10-12T04:17:30.386Z,8.00
2018-10-12T04:20:34.455Z,7.90
2018-10-12T04:23:37.950Z,7.80
2018-10-12T04:26:42.286Z,7.80
2018-10-12T04:29:46.467Z,7.70
2018-10-12T04:32:50.495Z,7.70
2018-10-12T04:35:55.629Z,7.70
2018-10-12T04:39:10.322Z,7.80
2018-10-12T04:42:13.811Z,7.70
2018-10-12T04:45:16.827Z,7.60
2018-10-12T04:48:21.456Z,7.70
2018-10-12T04:51:29.574Z,7.70
2018-10-12T04:54:33.051Z,7.70
2018-10-12T04:57:36.623Z,7.60
2018-10-12T05:00:41.539Z,7.70
2018-10-12T05:03:45.810Z,7.80
2018-10-12T05:06:49.290Z,7.80
2018-10-12T05:09:52.942Z,7.80
2018-10-12T05:12:57.183Z,7.70
2018-10-12T05:16:00.878Z,7.60
2018-10-12T05:19:05.571Z,7.40
2018-10-12T05:22:10.957Z,7.30
2018-10-12T05:25:14.403Z,7.30
2018-10-12T05:28:18.334Z,7.30
2018-10-12T05:31:22.018Z,7.20
2018-10-12T05:34:26.318Z,7.20
2018-10-12T05:37:30.944Z,7.30
2018-10-12T05:40:34.986Z,7.30
2018-10-12T05:43:40.471Z,7.40
2018-10-12T05:46:45.006Z,7.30
2018-10-12T05:50:04.699Z,7.30
2018-10-12T05:53:08.594Z,7.40
2018-10-12T05:56:14.238Z,7.50
2018-10-12T05:59:19.575Z,7.50
2018-10-12T06:02:24.138Z,7.70
2018-10-12T06:05:28.136Z,7.70
2018-10-12T06:08:32.838Z,7.70
2018-10-12T06:11:36.938Z,7.60
2018-10-12T06:14:42.491Z,7.70
2018-10-12T06:17:45.608Z,7.80
2018-10-12T06:20:51.130Z,7.90
2018-10-12T06:23:54.734Z,8.00
2018-10-12T06:26:59.850Z,8.20
2018-10-12T06:30:04.546Z,8.20
2018-10-12T06:33:08.530Z,8.40
2018-10-12T06:36:12.734Z,8.50
2018-10-12T06:39:16.227Z,8.60
2018-10-12T06:42:19.871Z,8.70
2018-10-12T06:45:23.474Z,8.80
2018-10-12T06:48:28.658Z,8.90
2018-10-12T06:51:32.767Z,9.00
2018-10-12T06:54:35.720Z,9.10
2018-10-12T06:57:39.634Z,9.30
2018-10-12T07:00:43.142Z,9.60
2018-10-12T07:03:47.298Z,9.70
2018-10-12T07:06:51.494Z,9.70
2018-10-12T07:09:55.051Z,9.80
2018-10-12T07:13:00.012Z,9.90
2018-10-12T07:16:03.499Z,10.00
2018-10-12T07:19:07.575Z,10.20
2018-10-12T07:22:11.299Z,10.50
2018-10-12T07:25:15.555Z,10.70
2018-10-12T07:28:19.175Z,10.90
2018-10-12T07:31:23.138Z,11.00
2018-10-12T07:34:28.946Z,11.40
2018-10-12T07:37:33.083Z,11.50
2018-10-12T07:40:36.614Z,11.50
2018-10-12T07:43:41.486Z,11.70
2018-10-12T07:46:47.099Z,11.70
2018-10-12T07:49:51.346Z,11.90
2018-10-12T07:52:55.826Z,12.10
2018-10-12T07:55:59.901Z,12.30
2018-10-12T07:59:03.488Z,12.40
2018-10-12T08:02:08.262Z,12.60
2018-10-12T08:05:12.263Z,12.80
2018-10-12T08:08:16.406Z,13.00
2018-10-12T08:11:20.008Z,13.10
2018-10-12T08:14:24.739Z,13.10
2018-10-12T08:17:28.335Z,13.20
2018-10-12T08:20:31.885Z,13.30
2018-10-12T08:23:36.410Z,13.40
2018-10-12T08:26:41.610Z,13.60
2018-10-12T08:29:46.647Z,13.90
2018-10-12T08:32:50.086Z,14.40
2018-10-12T08:35:54.178Z,14.80
2018-10-12T08:38:58.834Z,15.20
2018-10-12T08:42:03.150Z,15.60
2018-10-12T08:45:07.431Z,16.00
2018-10-12T08:48:11.562Z,15.90
2018-10-12T08:51:15.738Z,15.90
2018-10-12T08:54:20.617Z,15.90
2018-10-12T08:57:23.511Z,16.10
2018-10-12T09:00:27.811Z,16.30
2018-10-12T09:03:33.614Z,16.60
2018-10-12T09:06:37.846Z,16.80
2018-10-12T09:09:41.577Z,16.90
2018-10-12T09:12:46.551Z,17.00
2018-10-12T09:15:50.546Z,17.30
2018-10-12T09:18:54.071Z,17.40
2018-10-12T09:21:59.478Z,17.60
2018-10-12T09:25:02.502Z,17.70
2018-10-12T09:28:06.046Z,17.60
2018-10-12T09:31:09.087Z,17.70
2018-10-12T09:34:14.003Z,17.80
2018-10-12T09:37:17.651Z,17.90
2018-10-12T09:40:21.311Z,17.90
2018-10-12T09:43:25.735Z,18.00
2018-10-12T09:46:29.302Z,18.20
2018-10-12T09:49:32.926Z,18.30
2018-10-12T09:52:36.326Z,18.40
2018-10-12T09:55:39.982Z,18.70
2018-10-12T09:58:43.374Z,19.00
2018-10-12T10:01:52.939Z,19.40
2018-10-12T10:05:01.983Z,20.30
2018-10-12T10:08:06.839Z,21.30
2018-10-12T10:11:10.791Z,22.60
2018-10-12T10:14:13.890Z,24.00
2018-10-12T10:17:17.583Z,24.90
2018-10-12T10:20:20.618Z,25.30
2018-10-12T10:23:24.482Z,26.10
2018-10-12T10:26:27.951Z,26.70
2018-10-12T10:29:32.658Z,26.80
2018-10-12T10:32:37.903Z,27.60
2018-10-12T10:35:41.704Z,27.90
2018-10-12T10:38:45.698Z,28.20
2018-10-12T10:41:49.702Z,28.80
2018-10-12T10:44:53.974Z,30.10
2018-10-12T10:47:58.367Z,30.20
2018-10-12T10:51:02.713Z,30.80
2018-10-12T10:54:06.358Z,30.80
2018-10-12T10:57:11.871Z,32.10
2018-10-12T11:00:16.338Z,31.50
2018-10-12T11:03:19.367Z,31.30
2018-10-12T11:06:23.197Z,31.90
2018-10-12T11:09:28.910Z,32.70
2018-10-12T11:12:33.925Z,33.40
2018-10-12T11:15:38.358Z,32.90
2018-10-12T11:18:42.766Z,32.70
2018-10-12T11:21:48.885Z,33.40
2018-10-12T11:24:54.210Z,33.70
2018-10-12T11:27:59.458Z,33.40
2018-10-12T11:31:03.863Z,32.20
2018-10-12T11:34:08.014Z,31.90
2018-10-12T11:37:12.855Z,32.40
2018-10-12T11:40:16.578Z,32.60
2018-10-12T11:43:36.434Z,32.50
2018-10-12T11:46:40.922Z,32.70
2018-10-12T11:49:45.990Z,34.00
2018-10-12T11:52:49.610Z,35.50
2018-10-12T11:55:53.923Z,36.00
2018-10-12T11:58:57.638Z,35.70
2018-10-12T12:02:01.659Z,35.70
2018-10-12T12:05:06.330Z,36.00
2018-10-12T12:08:10.791Z,36.10
2018-10-12T12:11:14.950Z,35.90
2018-10-12T12:14:19.492Z,35.00
2018-10-12T12:17:23.600Z,35.00
2018-10-12T12:20:27.427Z,35.60
2018-10-12T12:23:32.106Z,34.30
2018-10-12T12:26:38.559Z,34.00
2018-10-12T12:29:43.423Z,33.20
2018-10-12T12:32:47.187Z,34.00
2018-10-12T12:35:52.603Z,34.70
2018-10-12T12:38:55.142Z,36.00
2018-10-12T12:42:00.420Z,36.20
2018-10-12T12:45:04.272Z,35.10
2018-10-12T12:48:07.958Z,34.50
2018-10-12T12:51:13.038Z,34.70
2018-10-12T12:54:17.103Z,34.80
2018-10-12T12:57:21.446Z,34.80
2018-10-12T13:00:27.161Z,36.10
2018-10-12T13:03:31.082Z,37.40
2018-10-12T13:06:34.778Z,37.70
2018-10-12T13:09:38.158Z,37.10
2018-10-12T13:12:41.544Z,35.70
2018-10-12T13:15:46.059Z,35.00
2018-10-12T13:18:50.291Z,34.50
2018-10-12T13:21:53.743Z,34.20
2018-10-12T13:24:57.355Z,33.70
2018-10-12T13:28:00.383Z,34.80
2018-10-12T13:31:03.382Z,35.30
2018-10-12T13:34:07.474Z,34.90
2018-10-12T13:37:11.626Z,34.00
2018-10-12T13:40:16.611Z,32.50
2018-10-12T13:43:21.611Z,31.90
2018-10-12T13:46:26.245Z,30.40
2018-10-12T13:49:30.183Z,29.10
2018-10-12T13:52:33.598Z,28.30
2018-10-12T13:55:37.702Z,28.10
2018-10-12T13:58:42.754Z,28.80
2018-10-12T14:01:45.799Z,30.00
2018-10-12T14:04:49.938Z,31.00
2018-10-12T14:07:54.843Z,31.00
2018-10-12T14:10:58.199Z,31.40
2018-10-12T14:14:02.454Z,31.50
2018-10-12T14:17:07.975Z,31.40
2018-10-12T14:20:12.190Z,32.10
2018-10-12T14:23:15.695Z,32.70
2018-10-12T14:26:20.055Z,33.20
2018-10-12T14:29:23.454Z,33.00
2018-10-12T14:32:27.670Z,33.20
2018-10-12T14:35:31.016Z,33.00
2018-10-12T14:38:34.778Z,32.70
2018-10-12T14:41:39.403Z,32.90
2018-10-12T14:44:44.095Z,33.10
2018-10-12T14:47:48.515Z,33.20
2018-10-12T14:50:52.882Z,33.30
2018-10-12T14:53:56.406Z,33.00
2018-10-12T14:57:00.498Z,32.60
2018-10-12T15:00:03.435Z,32.80
2018-10-12T15:03:07.305Z,33.30
2018-10-12T15:06:10.702Z,33.20
2018-10-12T15:09:14.098Z,32.40
2018-10-12T15:12:17.959Z,31.10
2018-10-12T15:15:23.524Z,29.90
2018-10-12T15:18:27.415Z,28.60
2018-10-12T15:21:31.032Z,27.80
2018-10-12T15:24:34.435Z,27.30
2018-10-12T15:27:37.566Z,27.20
2018-10-12T15:30:41.322Z,27.40
2018-10-12T15:33:44.588Z,26.90
2018-10-12T15:36:48.335Z,26.30
2018-10-12T15:39:51.995Z,25.70
2018-10-12T15:42:56.434Z,25.20
2018-10-12T15:46:00.507Z,24.70
2018-10-12T15:49:03.715Z,24.30
2018-10-12T15:52:07.344Z,24.00
2018-10-12T15:55:11.254Z,23.70
2018-10-12T15:58:15.054Z,23.40
2018-10-12T16:01:18.518Z,23.00
2018-10-12T16:04:23.710Z,22.70
2018-10-12T16:07:27.006Z,22.30
2018-10-12T16:10:30.831Z,21.80
2018-10-12T16:13:34.571Z,21.60
2018-10-12T16:16:37.714Z,21.30
2018-10-12T16:19:41.771Z,20.90
2018-10-12T16:22:45.363Z,20.70
2018-10-12T16:26:00.804Z,20.40
2018-10-12T16:29:05.125Z,20.10
2018-10-12T16:32:07.978Z,19.90
2018-10-12T16:35:11.010Z,19.70
2018-10-12T16:38:15.611Z,19.50
2018-10-12T16:41:19.129Z,19.40
2018-10-12T16:44:23.616Z,19.30
2018-10-12T16:47:28.422Z,19.10
2018-10-12T16:50:32.779Z,18.90
2018-10-12T16:53:35.794Z,18.70
2018-10-12T16:56:40.406Z,18.60
2018-10-12T16:59:44.867Z,18.40
2018-10-12T17:02:48.318Z,18.20
2018-10-12T17:05:56.610Z,18.00
2018-10-12T17:09:01.414Z,17.90
2018-10-12T17:12:04.979Z,17.70
2018-10-12T17:15:08.511Z,17.50
2018-10-12T17:18:12.725Z,17.40
2018-10-12T17:21:16.547Z,17.30
2018-10-12T17:24:20.787Z,17.10
2018-10-12T17:27:24.859Z,16.90
2018-10-12T17:30:27.902Z,16.80
2018-10-12T17:33:32.714Z,16.60
2018-10-12T17:36:37.159Z,16.50
2018-10-12T17:39:40.387Z,16.30
2018-10-12T17:42:44.572Z,16.10
2018-10-12T17:45:48.034Z,16.00
2018-10-12T17:48:53.378Z,15.90
2018-10-12T17:51:58.087Z,15.80
2018-10-12T17:55:02.405Z,15.70
2018-10-12T17:58:06.010Z,15.60
2018-10-12T18:01:10.084Z,15.50
2018-10-12T18:04:14.662Z,15.30
2018-10-12T18:07:18.770Z,15.20
2018-10-12T18:10:22.147Z,15.10
2018-10-12T18:13:26.422Z,15.00
2018-10-12T18:16:30.314Z,14.90
2018-10-12T18:19:33.325Z,14.70
2018-10-12T18:22:37.456Z,14.60
2018-10-12T18:25:40.942Z,14.50
2018-10-12T18:28:44.811Z,14.40
2018-10-12T18:31:49.318Z,14.40
2018-10-12T18:34:52.262Z,14.30
2018-10-12T18:37:55.782Z,14.20
2018-10-12T18:40:59.905Z,14.10
2018-10-12T18:44:03.651Z,14.00
2018-10-12T18:47:07.907Z,13.90
2018-10-12T18:50:12.722Z,13.80
2018-10-12T18:53:18.606Z,13.80
2018-10-12T18:56:22.855Z,13.80
2018-10-12T18:59:27.095Z,13.70
2018-10-12T19:02:31.883Z,13.60
2018-10-12T19:05:37.119Z,13.60
2018-10-12T19:08:41.262Z,13.50
2018-10-12T19:11:46.047Z,13.40
2018-10-12T19:14:49.728Z,13.30
2018-10-12T19:17:53.142Z,13.30
2018-10-12T19:20:58.180Z,13.20
2018-10-12T19:24:03.012Z,13.10
2018-10-12T19:27:07.594Z,13.00
2018-10-12T19:30:11.062Z,13.00
2018-10-12T19:33:16.334Z,12.90
2018-10-12T19:36:19.719Z,12.80
2018-10-12T19:39:24.235Z,12.80
2018-10-12T19:42:28.589Z,12.70
2018-10-12T19:50:06.187Z,12.60
2018-10-12T19:53:10.827Z,12.60
2018-10-12T19:56:14.302Z,12.40
2018-10-12T19:59:18.546Z,12.30
2018-10-12T20:02:23.008Z,12.30
2018-10-12T20:05:27.383Z,12.20
2018-10-12T20:08:31.543Z,12.20
2018-10-12T20:11:35.011Z,12.10
2018-10-12T20:14:39.903Z,12.10
2018-10-12T20:17:44.048Z,12.10
2018-10-12T20:20:48.527Z,12.00
2018-10-12T20:23:53.493Z,12.00
2018-10-12T20:26:57.643Z,12.00
2018-10-12T20:30:01.918Z,11.90
2018-10-12T20:33:06.220Z,11.80
2018-10-12T20:36:09.267Z,11.70
2018-10-12T20:39:13.347Z,11.60
2018-10-12T20:42:16.918Z,11.60
2018-10-12T20:45:21.044Z,11.50
2018-10-12T20:48:24.478Z,11.50
2018-10-12T20:51:28.551Z,11.40
2018-10-12T20:54:31.506Z,11.40
2018-10-12T20:57:40.532Z,11.40
2018-10-12T21:00:44.029Z,11.40
2018-10-12T21:03:48.677Z,11.40
2018-10-12T21:06:52.892Z,11.40
2018-10-12T21:09:57.174Z,11.30
2018-10-12T21:13:01.986Z,11.30
2018-10-12T21:16:05.586Z,11.20
2018-10-12T21:19:09.298Z,11.10
2018-10-12T21:22:13.059Z,11.00
2018-10-12T21:25:16.752Z,11.00
2018-10-12T21:28:21.276Z,10.90
2018-10-12T21:31:25.260Z,10.90
2018-10-12T21:34:29.146Z,10.90
2018-10-12T21:37:33.222Z,10.80
2018-10-12T21:40:37.473Z,10.80
2018-10-12T21:43:41.883Z,10.70
2018-10-12T21:46:45.160Z,10.60
2018-10-12T21:49:49.495Z,10.60
2018-10-12T21:52:53.183Z,10.60
2018-10-12T21:55:57.617Z,10.60
2018-10-12T21:59:01.766Z,10.50
2018-10-12T22:02:05.970Z,10.50
2018-10-12T22:05:09.835Z,10.40
2018-10-12T22:09:16.931Z,10.40
2018-10-12T22:12:21.112Z,10.30
2018-10-12T22:15:25.428Z,10.30
2018-10-12T22:18:29.881Z,10.40
2018-10-12T22:21:34.139Z,10.30
2018-10-12T22:24:39.415Z,10.30
2018-10-12T22:27:44.466Z,10.20
2018-10-12T22:30:50.027Z,10.20
2018-10-12T22:33:54.474Z,10.20
2018-10-12T22:36:58.166Z,10.10
2018-10-12T22:40:02.227Z,10.10
2018-10-12T22:43:07.064Z,10.10
2018-10-12T22:46:10.891Z,10.00
2018-10-12T22:49:15.131Z,9.90
2018-10-12T22:52:18.087Z,9.80
2018-10-12T22:55:21.563Z,9.80
2018-10-12T22:58:25.078Z,9.80
2018-10-12T23:01:28.731Z,9.80
2018-10-12T23:04:33.203Z,9.70
2018-10-12T23:07:37.707Z,9.70
2018-10-12T23:10:41.676Z,9.60
2018-10-12T23:13:46.331Z,9.60
2018-10-12T23:16:49.751Z,9.70
2018-10-12T23:19:54.331Z,9.70
2018-10-12T23:22:58.110Z,9.70
2018-10-12T23:26:02.099Z,9.60
2018-10-12T23:29:05.127Z,9.50
2018-10-12T23:32:09.442Z,9.50
2018-10-12T23:35:14.407Z,9.40
2018-10-12T23:38:19.282Z,9.40
2018-10-12T23:41:23.488Z,9.30
2018-10-12T23:44:28.219Z,9.30
2018-10-12T23:47:32.147Z,9.20
2018-10-12T23:50:36.158Z,9.20
2018-10-12T23:53:39.027Z,9.10
2018-10-12T23:56:43.798Z,9.10
2018-10-12T23:59:47.147Z,9.10
